sensor_id;sensor_type;location;lat;lon;timestamp;P1;durP1;ratioP1;P2;durP2;ratioP2
84780;SDS011;75011;50.086;19.886;2024-01-16T00:00:35;9.40;;;5.28;;
84780;SDS011;75011;50.086;19.886;2024-01-16T00:03:37;9.73;;;5.10;;
84780;SDS011;75011;50.086;19.886;2024-01-16T00:06:38;10.30;;;5.13;;
84780;SDS011;75011;50.086;19.886;2024-01-16T00:09:39;8.82;;;4.35;;
84780;SDS011;75011;50.086;19.886;2024-01-16T00:12:40;10.68;;;5.30;;
84780;SDS011;75011;50.086;19.886;2024-01-16T00:15:41;9.63;;;5.10;;
84780;SDS011;75011;50.086;19.886;2024-01-16T00:18:43;12.35;;;5.80;;
84780;SDS011;75011;50.086;19.886;2024-01-16T00:21:44;9.10;;;5.43;;
84780;SDS011;75011;50.086;19.886;2024-01-16T00:24:45;14.25;;;7.07;;
84780;SDS011;75011;50.086;19.886;2024-01-16T00:27:45;12.23;;;6.32;;
84780;SDS011;75011;50.086;19.886;2024-01-16T00:30:46;9.73;;;4.85;;
84780;SDS011;75011;50.086;19.886;2024-01-16T00:33:47;11.48;;;6.45;;
84780;SDS011;75011;50.086;19.886;2024-01-16T00:36:48;14.55;;;6.72;;
84780;SDS011;75011;50.086;19.886;2024-01-16T00:39:48;12.68;;;5.63;;
84780;SDS011;75011;50.086;19.886;2024-01-16T00:42:49;11.38;;;5.90;;
84780;SDS011;75011;50.086;19.886;2024-01-16T00:45:49;10.90;;;4.57;;
84780;SDS011;75011;50.086;19.886;2024-01-16T00:48:51;10.48;;;4.95;;
84780;SDS011;75011;50.086;19.886;2024-01-16T00:51:52;11.98;;;6.13;;
84780;SDS011;75011;50.086;19.886;2024-01-16T00:54:52;10.35;;;6.05;;
84780;SDS011;75011;50.086;19.886;2024-01-16T00:57:53;11.57;;;6.07;;
84780;SDS011;75011;50.086;19.886;2024-01-16T01:00:53;11.18;;;5.35;;
84780;SDS011;75011;50.086;19.886;2024-01-16T01:03:55;13.70;;;6.93;;
84780;SDS011;75011;50.086;19.886;2024-01-16T01:06:55;9.32;;;4.80;;
84780;SDS011;75011;50.086;19.886;2024-01-16T01:09:56;11.95;;;5.55;;
84780;SDS011;75011;50.086;19.886;2024-01-16T01:12:56;12.93;;;7.10;;
84780;SDS011;75011;50.086;19.886;2024-01-16T01:15:57;11.77;;;5.57;;
84780;SDS011;75011;50.086;19.886;2024-01-16T01:18:59;11.25;;;6.35;;
84780;SDS011;75011;50.086;19.886;2024-01-16T01:21:59;12.02;;;5.88;;
84780;SDS011;75011;50.086;19.886;2024-01-16T01:25:00;8.90;;;4.70;;
84780;SDS011;75011;50.086;19.886;2024-01-16T01:28:00;10.13;;;5.75;;
84780;SDS011;75011;50.086;19.886;2024-01-16T01:31:01;8.82;;;5.18;;
84780;SDS011;75011;50.086;19.886;2024-01-16T01:34:03;11.48;;;5.75;;
84780;SDS011;75011;50.086;19.886;2024-01-16T01:37:03;12.32;;;5.97;;
84780;SDS011;75011;50.086;19.886;2024-01-16T01:40:04;11.25;;;5.47;;
84780;SDS011;75011;50.086;19.886;2024-01-16T01:43:17;12.40;;;6.30;;
84780;SDS011;75011;50.086;19.886;2024-01-16T01:46:19;10.80;;;5.72;;
84780;SDS011;75011;50.086;19.886;2024-01-16T01:49:21;9.60;;;5.70;;
84780;SDS011;75011;50.086;19.886;2024-01-16T01:52:22;10.13;;;6.00;;
84780;SDS011;75011;50.086;19.886;2024-01-16T01:55:23;13.85;;;7.13;;
84780;SDS011;75011;50.086;19.886;2024-01-16T01:58:24;12.23;;;6.22;;
84780;SDS011;75011;50.086;19.886;2024-01-16T02:01:24;13.30;;;6.65;;
84780;SDS011;75011;50.086;19.886;2024-01-16T02:04:28;12.77;;;7.25;;
84780;SDS011;75011;50.086;19.886;2024-01-16T02:07:30;11.63;;;6.50;;
84780;SDS011;75011;50.086;19.886;2024-01-16T02:10:33;15.95;;;7.18;;
84780;SDS011;75011;50.086;19.886;2024-01-16T02:13:35;12.02;;;6.82;;
84780;SDS011;75011;50.086;19.886;2024-01-16T02:16:37;12.63;;;7.28;;
84780;SDS011;75011;50.086;19.886;2024-01-16T02:19:39;12.90;;;6.30;;
84780;SDS011;75011;50.086;19.886;2024-01-16T02:22:40;12.68;;;6.57;;
84780;SDS011;75011;50.086;19.886;2024-01-16T02:25:47;10.90;;;6.40;;
84780;SDS011;75011;50.086;19.886;2024-01-16T02:28:47;9.43;;;5.70;;
84780;SDS011;75011;50.086;19.886;2024-01-16T02:31:48;12.70;;;6.32;;
84780;SDS011;75011;50.086;19.886;2024-01-16T02:34:48;12.55;;;6.35;;
84780;SDS011;75011;50.086;19.886;2024-01-16T02:37:48;12.02;;;5.03;;
84780;SDS011;75011;50.086;19.886;2024-01-16T02:40:50;11.07;;;5.88;;
84780;SDS011;75011;50.086;19.886;2024-01-16T02:43:51;10.85;;;5.88;;
84780;SDS011;75011;50.086;19.886;2024-01-16T02:46:51;10.68;;;6.43;;
84780;SDS011;75011;50.086;19.886;2024-01-16T02:49:52;10.95;;;6.43;;
84780;SDS011;75011;50.086;19.886;2024-01-16T02:52:52;10.63;;;5.53;;
84780;SDS011;75011;50.086;19.886;2024-01-16T02:55:54;11.77;;;6.78;;
84780;SDS011;75011;50.086;19.886;2024-01-16T02:58:55;11.48;;;5.60;;
84780;SDS011;75011;50.086;19.886;2024-01-16T03:01:55;10.73;;;5.53;;
84780;SDS011;75011;50.086;19.886;2024-01-16T03:04:56;11.32;;;6.30;;
84780;SDS011;75011;50.086;19.886;2024-01-16T03:07:56;9.80;;;5.32;;
84780;SDS011;75011;50.086;19.886;2024-01-16T03:10:58;12.70;;;6.00;;
84780;SDS011;75011;50.086;19.886;2024-01-16T03:13:58;10.40;;;5.78;;
84780;SDS011;75011;50.086;19.886;2024-01-16T03:17:00;11.68;;;6.55;;
84780;SDS011;75011;50.086;19.886;2024-01-16T03:20:00;9.68;;;5.82;;
84780;SDS011;75011;50.086;19.886;2024-01-16T03:23:01;9.63;;;5.65;;
84780;SDS011;75011;50.086;19.886;2024-01-16T03:26:03;10.52;;;5.95;;
84780;SDS011;75011;50.086;19.886;2024-01-16T03:29:03;11.57;;;5.00;;
84780;SDS011;75011;50.086;19.886;2024-01-16T03:32:04;8.32;;;4.25;;
84780;SDS011;75011;50.086;19.886;2024-01-16T03:35:05;9.18;;;4.00;;
84780;SDS011;75011;50.086;19.886;2024-01-16T03:38:07;8.02;;;4.85;;
84780;SDS011;75011;50.086;19.886;2024-01-16T03:41:10;7.45;;;4.22;;
84780;SDS011;75011;50.086;19.886;2024-01-16T03:44:10;7.47;;;4.28;;
84780;SDS011;75011;50.086;19.886;2024-01-16T03:47:11;9.25;;;4.32;;
84780;SDS011;75011;50.086;19.886;2024-01-16T03:50:12;9.48;;;4.70;;
84780;SDS011;75011;50.086;19.886;2024-01-16T03:53:12;8.70;;;3.78;;
84780;SDS011;75011;50.086;19.886;2024-01-16T03:56:14;7.88;;;3.90;;
84780;SDS011;75011;50.086;19.886;2024-01-16T03:59:15;7.75;;;4.20;;
84780;SDS011;75011;50.086;19.886;2024-01-16T04:02:16;9.57;;;4.40;;
84780;SDS011;75011;50.086;19.886;2024-01-16T04:05:16;8.77;;;4.70;;
84780;SDS011;75011;50.086;19.886;2024-01-16T04:08:17;7.90;;;4.32;;
84780;SDS011;75011;50.086;19.886;2024-01-16T04:11:19;12.35;;;5.13;;
84780;SDS011;75011;50.086;19.886;2024-01-16T04:14:19;4.72;;;2.47;;
84780;SDS011;75011;50.086;19.886;2024-01-16T04:17:20;8.90;;;4.50;;
84780;SDS011;75011;50.086;19.886;2024-01-16T04:20:20;11.30;;;5.57;;
84780;SDS011;75011;50.086;19.886;2024-01-16T04:23:21;12.32;;;6.70;;
84780;SDS011;75011;50.086;19.886;2024-01-16T04:26:22;11.40;;;5.85;;
84780;SDS011;75011;50.086;19.886;2024-01-16T04:29:23;11.35;;;5.82;;
84780;SDS011;75011;50.086;19.886;2024-01-16T04:32:23;13.13;;;5.78;;
84780;SDS011;75011;50.086;19.886;2024-01-16T04:35:24;13.18;;;5.97;;
84780;SDS011;75011;50.086;19.886;2024-01-16T04:38:24;12.57;;;6.63;;
84780;SDS011;75011;50.086;19.886;2024-01-16T04:41:26;12.07;;;5.65;;
84780;SDS011;75011;50.086;19.886;2024-01-16T04:44:26;13.00;;;6.57;;
84780;SDS011;75011;50.086;19.886;2024-01-16T04:47:27;9.02;;;5.35;;
84780;SDS011;75011;50.086;19.886;2024-01-16T04:50:27;10.90;;;5.97;;
84780;SDS011;75011;50.086;19.886;2024-01-16T04:53:28;7.75;;;4.53;;
84780;SDS011;75011;50.086;19.886;2024-01-16T04:56:30;10.32;;;5.43;;
84780;SDS011;75011;50.086;19.886;2024-01-16T04:59:30;8.60;;;4.43;;
84780;SDS011;75011;50.086;19.886;2024-01-16T05:02:30;9.38;;;4.65;;
84780;SDS011;75011;50.086;19.886;2024-01-16T05:05:31;7.22;;;4.45;;
84780;SDS011;75011;50.086;19.886;2024-01-16T05:08:32;7.72;;;4.13;;
84780;SDS011;75011;50.086;19.886;2024-01-16T05:11:33;13.25;;;4.75;;
84780;SDS011;75011;50.086;19.886;2024-01-16T05:14:34;8.65;;;3.50;;
84780;SDS011;75011;50.086;19.886;2024-01-16T05:17:34;7.05;;;3.63;;
84780;SDS011;75011;50.086;19.886;2024-01-16T05:20:35;6.63;;;4.18;;
84780;SDS011;75011;50.086;19.886;2024-01-16T05:23:35;8.70;;;5.25;;
84780;SDS011;75011;50.086;19.886;2024-01-16T05:26:37;9.05;;;4.25;;
84780;SDS011;75011;50.086;19.886;2024-01-16T05:29:37;7.63;;;3.92;;
84780;SDS011;75011;50.086;19.886;2024-01-16T05:32:40;7.30;;;4.25;;
84780;SDS011;75011;50.086;19.886;2024-01-16T05:35:41;8.30;;;5.03;;
84780;SDS011;75011;50.086;19.886;2024-01-16T05:38:41;9.43;;;5.13;;
84780;SDS011;75011;50.086;19.886;2024-01-16T05:41:43;7.25;;;3.78;;
84780;SDS011;75011;50.086;19.886;2024-01-16T05:44:44;11.82;;;5.13;;
84780;SDS011;75011;50.086;19.886;2024-01-16T05:47:44;9.30;;;4.43;;
84780;SDS011;75011;50.086;19.886;2024-01-16T05:50:44;9.55;;;4.40;;
84780;SDS011;75011;50.086;19.886;2024-01-16T05:53:45;13.77;;;5.68;;
84780;SDS011;75011;50.086;19.886;2024-01-16T05:56:47;12.50;;;5.00;;
84780;SDS011;75011;50.086;19.886;2024-01-16T05:59:47;8.23;;;3.35;;
84780;SDS011;75011;50.086;19.886;2024-01-16T06:02:48;11.93;;;5.22;;
84780;SDS011;75011;50.086;19.886;2024-01-16T06:05:48;13.68;;;5.57;;
84780;SDS011;75011;50.086;19.886;2024-01-16T06:08:48;9.85;;;3.75;;
84780;SDS011;75011;50.086;19.886;2024-01-16T06:11:50;8.77;;;4.10;;
84780;SDS011;75011;50.086;19.886;2024-01-16T06:14:51;8.70;;;3.25;;
84780;SDS011;75011;50.086;19.886;2024-01-16T06:17:51;9.00;;;4.10;;
84780;SDS011;75011;50.086;19.886;2024-01-16T06:20:52;7.43;;;3.60;;
84780;SDS011;75011;50.086;19.886;2024-01-16T06:23:52;7.35;;;3.00;;
84780;SDS011;75011;50.086;19.886;2024-01-16T06:26:54;7.20;;;2.78;;
84780;SDS011;75011;50.086;19.886;2024-01-16T06:29:55;6.22;;;2.72;;
84780;SDS011;75011;50.086;19.886;2024-01-16T06:32:55;5.35;;;2.65;;
84780;SDS011;75011;50.086;19.886;2024-01-16T06:35:56;10.68;;;3.00;;
84780;SDS011;75011;50.086;19.886;2024-01-16T06:38:56;5.45;;;2.75;;
84780;SDS011;75011;50.086;19.886;2024-01-16T06:41:58;8.90;;;3.28;;
84780;SDS011;75011;50.086;19.886;2024-01-16T06:44:58;9.18;;;3.58;;
84780;SDS011;75011;50.086;19.886;2024-01-16T06:47:59;9.60;;;3.58;;
84780;SDS011;75011;50.086;19.886;2024-01-16T06:50:59;8.23;;;3.97;;
84780;SDS011;75011;50.086;19.886;2024-01-16T06:54:00;8.32;;;3.97;;
84780;SDS011;75011;50.086;19.886;2024-01-16T06:57:01;7.50;;;5.03;;
84780;SDS011;75011;50.086;19.886;2024-01-16T07:00:02;12.65;;;4.57;;
84780;SDS011;75011;50.086;19.886;2024-01-16T07:03:03;9.00;;;4.75;;
84780;SDS011;75011;50.086;19.886;2024-01-16T07:06:04;13.57;;;5.15;;
84780;SDS011;75011;50.086;19.886;2024-01-16T07:09:05;10.93;;;5.80;;
84780;SDS011;75011;50.086;19.886;2024-01-16T07:12:06;10.10;;;6.05;;
84780;SDS011;75011;50.086;19.886;2024-01-16T07:15:07;13.45;;;5.35;;
84780;SDS011;75011;50.086;19.886;2024-01-16T07:18:08;9.82;;;5.20;;
84780;SDS011;75011;50.086;19.886;2024-01-16T07:21:16;10.93;;;6.03;;
84780;SDS011;75011;50.086;19.886;2024-01-16T07:24:16;11.00;;;5.68;;
84780;SDS011;75011;50.086;19.886;2024-01-16T07:27:19;13.85;;;6.57;;
84780;SDS011;75011;50.086;19.886;2024-01-16T07:30:19;12.48;;;6.43;;
84780;SDS011;75011;50.086;19.886;2024-01-16T07:33:20;10.02;;;5.75;;
84780;SDS011;75011;50.086;19.886;2024-01-16T07:36:20;12.52;;;6.25;;
84780;SDS011;75011;50.086;19.886;2024-01-16T07:39:21;14.05;;;7.18;;
84780;SDS011;75011;50.086;19.886;2024-01-16T07:42:23;12.73;;;7.43;;
84780;SDS011;75011;50.086;19.886;2024-01-16T07:45:23;11.73;;;6.55;;
84780;SDS011;75011;50.086;19.886;2024-01-16T07:48:24;12.55;;;5.90;;
84780;SDS011;75011;50.086;19.886;2024-01-16T07:51:24;13.48;;;6.80;;
84780;SDS011;75011;50.086;19.886;2024-01-16T07:54:25;17.00;;;7.25;;
84780;SDS011;75011;50.086;19.886;2024-01-16T07:57:27;15.05;;;7.85;;
84780;SDS011;75011;50.086;19.886;2024-01-16T08:00:27;14.40;;;7.63;;
84780;SDS011;75011;50.086;19.886;2024-01-16T08:03:28;14.15;;;7.57;;
84780;SDS011;75011;50.086;19.886;2024-01-16T08:06:28;13.25;;;7.20;;
84780;SDS011;75011;50.086;19.886;2024-01-16T08:09:29;12.35;;;7.45;;
84780;SDS011;75011;50.086;19.886;2024-01-16T08:12:31;14.63;;;7.63;;
84780;SDS011;75011;50.086;19.886;2024-01-16T08:15:32;15.60;;;7.85;;
84780;SDS011;75011;50.086;19.886;2024-01-16T08:18:32;16.50;;;7.75;;
84780;SDS011;75011;50.086;19.886;2024-01-16T08:21:33;16.75;;;8.90;;
84780;SDS011;75011;50.086;19.886;2024-01-16T08:24:33;17.23;;;9.07;;
84780;SDS011;75011;50.086;19.886;2024-01-16T08:27:35;17.70;;;9.02;;
84780;SDS011;75011;50.086;19.886;2024-01-16T08:30:36;17.63;;;8.93;;
84780;SDS011;75011;50.086;19.886;2024-01-16T08:33:36;17.70;;;8.77;;
84780;SDS011;75011;50.086;19.886;2024-01-16T08:36:36;13.50;;;7.78;;
84780;SDS011;75011;50.086;19.886;2024-01-16T08:39:37;9.63;;;5.07;;
84780;SDS011;75011;50.086;19.886;2024-01-16T08:42:39;10.70;;;5.10;;
84780;SDS011;75011;50.086;19.886;2024-01-16T08:45:39;10.10;;;5.32;;
84780;SDS011;75011;50.086;19.886;2024-01-16T08:48:40;12.32;;;5.72;;
84780;SDS011;75011;50.086;19.886;2024-01-16T08:51:40;8.07;;;4.00;;
84780;SDS011;75011;50.086;19.886;2024-01-16T08:54:41;9.75;;;3.70;;
84780;SDS011;75011;50.086;19.886;2024-01-16T08:57:42;11.73;;;5.25;;
84780;SDS011;75011;50.086;19.886;2024-01-16T09:00:43;7.53;;;4.35;;
84780;SDS011;75011;50.086;19.886;2024-01-16T09:03:43;7.75;;;3.70;;
84780;SDS011;75011;50.086;19.886;2024-01-16T09:06:44;7.63;;;4.07;;
84780;SDS011;75011;50.086;19.886;2024-01-16T09:09:44;9.32;;;3.30;;
84780;SDS011;75011;50.086;19.886;2024-01-16T09:12:46;8.35;;;3.03;;
84780;SDS011;75011;50.086;19.886;2024-01-16T09:15:47;8.93;;;3.65;;
84780;SDS011;75011;50.086;19.886;2024-01-16T09:18:48;15.73;;;3.63;;
84780;SDS011;75011;50.086;19.886;2024-01-16T09:21:48;10.30;;;4.05;;
84780;SDS011;75011;50.086;19.886;2024-01-16T09:24:49;7.25;;;3.00;;
84780;SDS011;75011;50.086;19.886;2024-01-16T09:27:50;6.07;;;2.92;;
84780;SDS011;75011;50.086;19.886;2024-01-16T09:30:51;4.82;;;2.92;;
84780;SDS011;75011;50.086;19.886;2024-01-16T09:33:51;7.88;;;2.17;;
84780;SDS011;75011;50.086;19.886;2024-01-16T09:36:52;5.80;;;2.83;;
84780;SDS011;75011;50.086;19.886;2024-01-16T09:39:52;5.22;;;2.35;;
84780;SDS011;75011;50.086;19.886;2024-01-16T09:42:54;6.78;;;2.55;;
84780;SDS011;75011;50.086;19.886;2024-01-16T09:45:56;7.35;;;2.42;;
84780;SDS011;75011;50.086;19.886;2024-01-16T09:49:00;7.03;;;2.83;;
84780;SDS011;75011;50.086;19.886;2024-01-16T09:52:00;4.82;;;2.33;;
84780;SDS011;75011;50.086;19.886;2024-01-16T09:55:01;5.57;;;2.47;;
84780;SDS011;75011;50.086;19.886;2024-01-16T09:58:03;5.85;;;2.55;;
84780;SDS011;75011;50.086;19.886;2024-01-16T10:01:08;7.22;;;2.65;;
84780;SDS011;75011;50.086;19.886;2024-01-16T10:04:09;5.13;;;2.63;;
84780;SDS011;75011;50.086;19.886;2024-01-16T10:07:10;5.50;;;2.35;;
84780;SDS011;75011;50.086;19.886;2024-01-16T10:10:14;7.75;;;2.30;;
84780;SDS011;75011;50.086;19.886;2024-01-16T10:13:16;7.97;;;3.10;;
84780;SDS011;75011;50.086;19.886;2024-01-16T10:16:17;6.07;;;3.58;;
84780;SDS011;75011;50.086;19.886;2024-01-16T10:19:17;5.65;;;2.85;;
84780;SDS011;75011;50.086;19.886;2024-01-16T10:22:20;6.28;;;2.88;;
84780;SDS011;75011;50.086;19.886;2024-01-16T10:25:22;6.45;;;3.22;;
84780;SDS011;75011;50.086;19.886;2024-01-16T10:28:24;10.40;;;2.38;;
84780;SDS011;75011;50.086;19.886;2024-01-16T10:31:25;8.20;;;3.42;;
84780;SDS011;75011;50.086;19.886;2024-01-16T10:34:29;6.60;;;2.85;;
84780;SDS011;75011;50.086;19.886;2024-01-16T10:37:30;7.25;;;2.83;;
84780;SDS011;75011;50.086;19.886;2024-01-16T10:40:31;9.15;;;3.22;;
84780;SDS011;75011;50.086;19.886;2024-01-16T10:43:33;9.10;;;3.50;;
84780;SDS011;75011;50.086;19.886;2024-01-16T10:46:34;8.30;;;3.90;;
84780;SDS011;75011;50.086;19.886;2024-01-16T10:49:35;8.27;;;3.38;;
84780;SDS011;75011;50.086;19.886;2024-01-16T10:52:35;7.57;;;3.90;;
84780;SDS011;75011;50.086;19.886;2024-01-16T10:55:48;8.02;;;3.67;;
84780;SDS011;75011;50.086;19.886;2024-01-16T10:58:55;9.85;;;4.47;;
84780;SDS011;75011;50.086;19.886;2024-01-16T11:02:00;8.98;;;4.00;;
84780;SDS011;75011;50.086;19.886;2024-01-16T11:05:06;10.05;;;4.60;;
84780;SDS011;75011;50.086;19.886;2024-01-16T11:08:10;11.38;;;3.95;;
84780;SDS011;75011;50.086;19.886;2024-01-16T11:11:13;7.90;;;4.10;;
84780;SDS011;75011;50.086;19.886;2024-01-16T11:14:15;7.05;;;3.38;;
84780;SDS011;75011;50.086;19.886;2024-01-16T11:17:17;6.82;;;3.03;;
84780;SDS011;75011;50.086;19.886;2024-01-16T11:20:18;7.95;;;3.65;;
84780;SDS011;75011;50.086;19.886;2024-01-16T11:23:19;7.50;;;2.90;;
84780;SDS011;75011;50.086;19.886;2024-01-16T11:26:26;8.18;;;3.40;;
84780;SDS011;75011;50.086;19.886;2024-01-16T11:29:35;7.10;;;4.05;;
84780;SDS011;75011;50.086;19.886;2024-01-16T11:32:36;9.15;;;4.00;;
84780;SDS011;75011;50.086;19.886;2024-01-16T11:35:38;9.27;;;3.85;;
84780;SDS011;75011;50.086;19.886;2024-01-16T11:38:38;6.28;;;3.03;;
84780;SDS011;75011;50.086;19.886;2024-01-16T11:41:47;8.32;;;3.97;;
84780;SDS011;75011;50.086;19.886;2024-01-16T11:44:50;8.55;;;3.47;;
84780;SDS011;75011;50.086;19.886;2024-01-16T11:47:54;10.18;;;3.42;;
84780;SDS011;75011;50.086;19.886;2024-01-16T11:51:22;8.20;;;3.33;;
84780;SDS011;75011;50.086;19.886;2024-01-16T11:54:24;5.85;;;2.83;;
84780;SDS011;75011;50.086;19.886;2024-01-16T11:57:26;6.20;;;2.40;;
84780;SDS011;75011;50.086;19.886;2024-01-16T12:00:47;6.88;;;3.47;;
84780;SDS011;75011;50.086;19.886;2024-01-16T12:04:01;5.85;;;3.90;;
84780;SDS011;75011;50.086;19.886;2024-01-16T12:07:01;5.68;;;3.17;;
84780;SDS011;75011;50.086;19.886;2024-01-16T12:10:02;7.60;;;2.35;;
84780;SDS011;75011;50.086;19.886;2024-01-16T12:13:03;9.10;;;3.03;;
84780;SDS011;75011;50.086;19.886;2024-01-16T12:16:05;7.05;;;2.75;;
84780;SDS011;75011;50.086;19.886;2024-01-16T12:19:06;8.18;;;3.22;;
84780;SDS011;75011;50.086;19.886;2024-01-16T12:22:07;6.75;;;2.90;;
84780;SDS011;75011;50.086;19.886;2024-01-16T12:25:08;9.13;;;3.40;;
84780;SDS011;75011;50.086;19.886;2024-01-16T12:28:09;7.30;;;3.30;;
84780;SDS011;75011;50.086;19.886;2024-01-16T12:31:11;5.78;;;3.05;;
84780;SDS011;75011;50.086;19.886;2024-01-16T12:34:22;6.93;;;3.35;;
84780;SDS011;75011;50.086;19.886;2024-01-16T12:37:22;6.10;;;3.17;;
84780;SDS011;75011;50.086;19.886;2024-01-16T12:40:22;3.88;;;2.20;;
84780;SDS011;75011;50.086;19.886;2024-01-16T12:43:23;6.57;;;2.80;;
84780;SDS011;75011;50.086;19.886;2024-01-16T12:46:25;5.80;;;2.90;;
84780;SDS011;75011;50.086;19.886;2024-01-16T12:49:26;4.78;;;2.28;;
84780;SDS011;75011;50.086;19.886;2024-01-16T12:52:26;3.63;;;1.98;;
84780;SDS011;75011;50.086;19.886;2024-01-16T12:55:27;4.47;;;1.95;;
84780;SDS011;75011;50.086;19.886;2024-01-16T12:58:31;6.50;;;3.13;;
84780;SDS011;75011;50.086;19.886;2024-01-16T13:01:34;7.18;;;3.05;;
84780;SDS011;75011;50.086;19.886;2024-01-16T13:04:34;3.80;;;2.22;;
84780;SDS011;75011;50.086;19.886;2024-01-16T13:07:35;5.30;;;2.60;;
84780;SDS011;75011;50.086;19.886;2024-01-16T13:10:35;5.85;;;2.67;;
84780;SDS011;75011;50.086;19.886;2024-01-16T13:13:36;4.53;;;2.15;;
84780;SDS011;75011;50.086;19.886;2024-01-16T13:16:38;3.60;;;1.63;;
84780;SDS011;75011;50.086;19.886;2024-01-16T13:19:39;3.65;;;1.63;;
84780;SDS011;75011;50.086;19.886;2024-01-16T13:22:40;3.00;;;1.10;;
84780;SDS011;75011;50.086;19.886;2024-01-16T13:25:42;5.28;;;1.77;;
84780;SDS011;75011;50.086;19.886;2024-01-16T13:28:43;5.20;;;1.25;;
84780;SDS011;75011;50.086;19.886;2024-01-16T13:31:44;3.42;;;1.63;;
84780;SDS011;75011;50.086;19.886;2024-01-16T13:34:45;5.68;;;1.42;;
84780;SDS011;75011;50.086;19.886;2024-01-16T13:37:45;2.58;;;1.30;;
84780;SDS011;75011;50.086;19.886;2024-01-16T13:40:46;3.33;;;1.83;;
84780;SDS011;75011;50.086;19.886;2024-01-16T13:43:47;4.03;;;1.55;;
84780;SDS011;75011;50.086;19.886;2024-01-16T13:46:48;4.65;;;1.60;;
84780;SDS011;75011;50.086;19.886;2024-01-16T13:49:49;4.28;;;1.80;;
84780;SDS011;75011;50.086;19.886;2024-01-16T13:52:50;5.60;;;2.45;;
84780;SDS011;75011;50.086;19.886;2024-01-16T13:55:50;4.90;;;2.60;;
84780;SDS011;75011;50.086;19.886;2024-01-16T13:58:51;7.78;;;3.15;;
84780;SDS011;75011;50.086;19.886;2024-01-16T14:01:52;7.22;;;3.83;;
84780;SDS011;75011;50.086;19.886;2024-01-16T14:04:53;8.98;;;4.38;;
84780;SDS011;75011;50.086;19.886;2024-01-16T14:07:53;7.95;;;4.07;;
84780;SDS011;75011;50.086;19.886;2024-01-16T14:10:54;11.02;;;4.68;;
84780;SDS011;75011;50.086;19.886;2024-01-16T14:13:54;7.63;;;3.75;;
84780;SDS011;75011;50.086;19.886;2024-01-16T14:16:56;9.00;;;4.22;;
84780;SDS011;75011;50.086;19.886;2024-01-16T14:19:56;10.13;;;4.57;;
84780;SDS011;75011;50.086;19.886;2024-01-16T14:22:57;10.45;;;4.43;;
84780;SDS011;75011;50.086;19.886;2024-01-16T14:25:57;9.13;;;5.07;;
84780;SDS011;75011;50.086;19.886;2024-01-16T14:28:58;11.70;;;5.40;;
84780;SDS011;75011;50.086;19.886;2024-01-16T14:32:00;11.50;;;5.13;;
84780;SDS011;75011;50.086;19.886;2024-01-16T14:35:00;9.15;;;4.78;;
84780;SDS011;75011;50.086;19.886;2024-01-16T14:38:00;10.73;;;5.95;;
84780;SDS011;75011;50.086;19.886;2024-01-16T14:41:01;15.40;;;6.13;;
84780;SDS011;75011;50.086;19.886;2024-01-16T14:44:01;13.90;;;6.53;;
84780;SDS011;75011;50.086;19.886;2024-01-16T14:47:03;13.85;;;7.30;;
84780;SDS011;75011;50.086;19.886;2024-01-16T14:50:04;10.55;;;5.82;;
84780;SDS011;75011;50.086;19.886;2024-01-16T14:53:05;13.00;;;6.45;;
84780;SDS011;75011;50.086;19.886;2024-01-16T14:56:06;13.68;;;6.07;;
84780;SDS011;75011;50.086;19.886;2024-01-16T14:59:06;11.77;;;6.10;;
84780;SDS011;75011;50.086;19.886;2024-01-16T15:02:08;13.77;;;6.57;;
84780;SDS011;75011;50.086;19.886;2024-01-16T15:05:09;11.48;;;5.88;;
84780;SDS011;75011;50.086;19.886;2024-01-16T15:08:09;13.70;;;7.25;;
84780;SDS011;75011;50.086;19.886;2024-01-16T15:11:10;17.10;;;7.03;;
84780;SDS011;75011;50.086;19.886;2024-01-16T15:14:10;15.52;;;7.53;;
84780;SDS011;75011;50.086;19.886;2024-01-16T15:17:12;13.27;;;6.88;;
84780;SDS011;75011;50.086;19.886;2024-01-16T15:20:13;16.85;;;7.90;;
84780;SDS011;75011;50.086;19.886;2024-01-16T15:23:13;16.73;;;7.82;;
84780;SDS011;75011;50.086;19.886;2024-01-16T15:26:14;14.32;;;7.07;;
84780;SDS011;75011;50.086;19.886;2024-01-16T15:29:14;17.55;;;7.28;;
84780;SDS011;75011;50.086;19.886;2024-01-16T15:32:16;13.80;;;6.40;;
84780;SDS011;75011;50.086;19.886;2024-01-16T15:35:16;16.48;;;6.07;;
84780;SDS011;75011;50.086;19.886;2024-01-16T15:38:17;11.43;;;5.85;;
84780;SDS011;75011;50.086;19.886;2024-01-16T15:41:17;15.23;;;6.03;;
84780;SDS011;75011;50.086;19.886;2024-01-16T15:44:18;12.77;;;5.50;;
84780;SDS011;75011;50.086;19.886;2024-01-16T15:47:20;13.52;;;6.60;;
84780;SDS011;75011;50.086;19.886;2024-01-16T15:50:20;9.57;;;5.22;;
84780;SDS011;75011;50.086;19.886;2024-01-16T15:53:21;10.10;;;4.80;;
84780;SDS011;75011;50.086;19.886;2024-01-16T15:56:21;13.23;;;6.05;;
84780;SDS011;75011;50.086;19.886;2024-01-16T15:59:22;7.97;;;4.15;;
84780;SDS011;75011;50.086;19.886;2024-01-16T16:02:24;12.68;;;4.75;;
84780;SDS011;75011;50.086;19.886;2024-01-16T16:05:24;10.15;;;4.68;;
84780;SDS011;75011;50.086;19.886;2024-01-16T16:08:25;8.73;;;4.53;;
84780;SDS011;75011;50.086;19.886;2024-01-16T16:11:25;6.70;;;3.78;;
84780;SDS011;75011;50.086;19.886;2024-01-16T16:14:27;9.57;;;4.32;;
84780;SDS011;75011;50.086;19.886;2024-01-16T16:17:30;8.93;;;3.40;;
84780;SDS011;75011;50.086;19.886;2024-01-16T16:20:30;8.02;;;4.50;;
84780;SDS011;75011;50.086;19.886;2024-01-16T16:23:30;9.95;;;4.05;;
84780;SDS011;75011;50.086;19.886;2024-01-16T16:26:31;7.60;;;3.63;;
84780;SDS011;75011;50.086;19.886;2024-01-16T16:29:33;9.38;;;5.07;;
84780;SDS011;75011;50.086;19.886;2024-01-16T16:32:34;9.77;;;4.68;;
84780;SDS011;75011;50.086;19.886;2024-01-16T16:35:35;8.05;;;3.80;;
84780;SDS011;75011;50.086;19.886;2024-01-16T16:38:35;9.00;;;4.43;;
84780;SDS011;75011;50.086;19.886;2024-01-16T16:41:36;9.25;;;4.15;;
84780;SDS011;75011;50.086;19.886;2024-01-16T16:44:39;10.27;;;4.00;;
84780;SDS011;75011;50.086;19.886;2024-01-16T16:47:41;8.98;;;4.40;;
84780;SDS011;75011;50.086;19.886;2024-01-16T16:50:42;11.35;;;5.22;;
84780;SDS011;75011;50.086;19.886;2024-01-16T16:53:42;10.65;;;4.03;;
84780;SDS011;75011;50.086;19.886;2024-01-16T16:56:43;7.57;;;3.85;;
84780;SDS011;75011;50.086;19.886;2024-01-16T16:59:43;8.65;;;5.05;;
84780;SDS011;75011;50.086;19.886;2024-01-16T17:02:45;10.40;;;4.05;;
84780;SDS011;75011;50.086;19.886;2024-01-16T17:05:45;10.35;;;4.65;;
84780;SDS011;75011;50.086;19.886;2024-01-16T17:08:46;9.27;;;4.45;;
84780;SDS011;75011;50.086;19.886;2024-01-16T17:11:46;10.25;;;4.90;;
84780;SDS011;75011;50.086;19.886;2024-01-16T17:14:47;7.85;;;4.30;;
84780;SDS011;75011;50.086;19.886;2024-01-16T17:17:48;10.70;;;5.57;;
84780;SDS011;75011;50.086;19.886;2024-01-16T17:20:49;13.60;;;6.78;;
84780;SDS011;75011;50.086;19.886;2024-01-16T17:23:49;13.27;;;6.30;;
84780;SDS011;75011;50.086;19.886;2024-01-16T17:26:50;15.52;;;7.78;;
84780;SDS011;75011;50.086;19.886;2024-01-16T17:29:50;15.15;;;6.75;;
84780;SDS011;75011;50.086;19.886;2024-01-16T17:32:52;14.75;;;7.32;;
84780;SDS011;75011;50.086;19.886;2024-01-16T17:35:52;15.43;;;6.55;;
84780;SDS011;75011;50.086;19.886;2024-01-16T17:38:53;15.45;;;7.15;;
84780;SDS011;75011;50.086;19.886;2024-01-16T17:41:54;16.73;;;7.90;;
84780;SDS011;75011;50.086;19.886;2024-01-16T17:44:54;17.88;;;7.95;;
84780;SDS011;75011;50.086;19.886;2024-01-16T17:47:56;17.33;;;7.22;;